sensor_id;sensor_type;location;lat;lon;timestamp;P1;durP1;ratioP1;P2;durP2;ratioP2
55063;SDS011;40963;52.168;21.296;2023-04-29T00:00:04;24.70;;;11.30;;
55063;SDS011;40963;52.168;21.296;2023-04-29T00:02:30;19.85;;;10.40;;
55063;SDS011;40963;52.168;21.296;2023-04-29T00:04:56;17.75;;;9.80;;
55063;SDS011;40963;52.168;21.296;2023-04-29T00:07:22;23.63;;;11.32;;
55063;SDS011;40963;52.168;21.296;2023-04-29T00:09:48;19.35;;;9.48;;
55063;SDS011;40963;52.168;21.296;2023-04-29T00:12:13;21.98;;;10.93;;
55063;SDS011;40963;52.168;21.296;2023-04-29T00:14:39;22.02;;;10.07;;
55063;SDS011;40963;52.168;21.296;2023-04-29T00:17:07;21.42;;;10.70;;
55063;SDS011;40963;52.168;21.296;2023-04-29T00:19:33;19.27;;;10.05;;
55063;SDS011;40963;52.168;21.296;2023-04-29T00:21:58;20.15;;;10.25;;
55063;SDS011;40963;52.168;21.296;2023-04-29T00:24:25;22.13;;;10.20;;
55063;SDS011;40963;52.168;21.296;2023-04-29T00:26:51;25.95;;;11.27;;
55063;SDS011;40963;52.168;21.296;2023-04-29T00:29:16;21.88;;;10.00;;
55063;SDS011;40963;52.168;21.296;2023-04-29T00:31:42;22.00;;;10.02;;
55063;SDS011;40963;52.168;21.296;2023-04-29T00:34:08;19.23;;;10.32;;
55063;SDS011;40963;52.168;21.296;2023-04-29T00:36:34;19.40;;;9.98;;
55063;SDS011;40963;52.168;21.296;2023-04-29T00:39:00;22.00;;;10.23;;
55063;SDS011;40963;52.168;21.296;2023-04-29T00:41:26;23.02;;;8.70;;
55063;SDS011;40963;52.168;21.296;2023-04-29T00:43:51;19.63;;;10.07;;
55063;SDS011;40963;52.168;21.296;2023-04-29T00:46:17;18.40;;;9.55;;
55063;SDS011;40963;52.168;21.296;2023-04-29T00:48:42;24.38;;;10.13;;
55063;SDS011;40963;52.168;21.296;2023-04-29T00:51:08;20.60;;;10.63;;
55063;SDS011;40963;52.168;21.296;2023-04-29T00:53:34;19.25;;;10.05;;
55063;SDS011;40963;52.168;21.296;2023-04-29T00:56:01;20.25;;;10.02;;
55063;SDS011;40963;52.168;21.296;2023-04-29T00:58:28;18.48;;;9.60;;
55063;SDS011;40963;52.168;21.296;2023-04-29T01:01:00;18.63;;;9.43;;
55063;SDS011;40963;52.168;21.296;2023-04-29T01:03:27;19.67;;;10.05;;
55063;SDS011;40963;52.168;21.296;2023-04-29T01:06:06;21.45;;;10.38;;
55063;SDS011;40963;52.168;21.296;2023-04-29T01:11:15;25.15;;;9.85;;
55063;SDS011;40963;52.168;21.296;2023-04-29T01:13:50;24.50;;;9.13;;
55063;SDS011;40963;52.168;21.296;2023-04-29T01:16:24;22.67;;;9.48;;
55063;SDS011;40963;52.168;21.296;2023-04-29T01:18:54;17.02;;;9.20;;
55063;SDS011;40963;52.168;21.296;2023-04-29T01:21:23;22.45;;;8.98;;
55063;SDS011;40963;52.168;21.296;2023-04-29T01:23:49;21.08;;;10.10;;
55063;SDS011;40963;52.168;21.296;2023-04-29T01:26:20;18.60;;;9.23;;
55063;SDS011;40963;52.168;21.296;2023-04-29T01:28:50;20.08;;;9.43;;
55063;SDS011;40963;52.168;21.296;2023-04-29T01:31:57;19.45;;;9.10;;
55063;SDS011;40963;52.168;21.296;2023-04-29T01:39:53;17.23;;;9.85;;
55063;SDS011;40963;52.168;21.296;2023-04-29T01:44:56;15.68;;;8.88;;
55063;SDS011;40963;52.168;21.296;2023-04-29T01:47:27;17.20;;;8.82;;
55063;SDS011;40963;52.168;21.296;2023-04-29T01:49:53;16.13;;;8.90;;
55063;SDS011;40963;52.168;21.296;2023-04-29T01:52:19;20.70;;;9.77;;
55063;SDS011;40963;52.168;21.296;2023-04-29T01:54:45;19.30;;;9.15;;
55063;SDS011;40963;52.168;21.296;2023-04-29T01:57:11;17.08;;;9.15;;
55063;SDS011;40963;52.168;21.296;2023-04-29T01:59:36;25.73;;;10.27;;
55063;SDS011;40963;52.168;21.296;2023-04-29T02:02:02;17.40;;;9.38;;
55063;SDS011;40963;52.168;21.296;2023-04-29T02:04:28;22.73;;;9.55;;
55063;SDS011;40963;52.168;21.296;2023-04-29T02:06:57;22.08;;;9.38;;
55063;SDS011;40963;52.168;21.296;2023-04-29T02:09:23;17.80;;;8.90;;
55063;SDS011;40963;52.168;21.296;2023-04-29T02:11:48;14.80;;;8.95;;
55063;SDS011;40963;52.168;21.296;2023-04-29T02:14:14;18.65;;;8.60;;
55063;SDS011;40963;52.168;21.296;2023-04-29T02:16:42;19.73;;;9.02;;
55063;SDS011;40963;52.168;21.296;2023-04-29T02:19:09;20.67;;;8.82;;
55063;SDS011;40963;52.168;21.296;2023-04-29T02:21:34;18.10;;;8.32;;
55063;SDS011;40963;52.168;21.296;2023-04-29T02:24:00;14.73;;;8.05;;
55063;SDS011;40963;52.168;21.296;2023-04-29T02:26:26;15.98;;;8.20;;
55063;SDS011;40963;52.168;21.296;2023-04-29T02:28:52;17.33;;;8.38;;
55063;SDS011;40963;52.168;21.296;2023-04-29T02:31:17;25.77;;;8.63;;
55063;SDS011;40963;52.168;21.296;2023-04-29T02:33:43;14.40;;;8.20;;
55063;SDS011;40963;52.168;21.296;2023-04-29T02:36:09;16.77;;;8.65;;
55063;SDS011;40963;52.168;21.296;2023-04-29T02:38:34;15.52;;;9.05;;
55063;SDS011;40963;52.168;21.296;2023-04-29T02:41:00;18.73;;;7.78;;
55063;SDS011;40963;52.168;21.296;2023-04-29T02:43:26;17.15;;;8.50;;
55063;SDS011;40963;52.168;21.296;2023-04-29T02:45:54;18.23;;;9.02;;
55063;SDS011;40963;52.168;21.296;2023-04-29T02:48:20;16.60;;;8.23;;
55063;SDS011;40963;52.168;21.296;2023-04-29T02:50:46;19.98;;;8.38;;
55063;SDS011;40963;52.168;21.296;2023-04-29T02:53:11;17.45;;;8.07;;
55063;SDS011;40963;52.168;21.296;2023-04-29T02:55:37;19.85;;;8.13;;
55063;SDS011;40963;52.168;21.296;2023-04-29T02:58:02;12.73;;;7.70;;
55063;SDS011;40963;52.168;21.296;2023-04-29T03:00:28;17.38;;;7.90;;
55063;SDS011;40963;52.168;21.296;2023-04-29T03:02:54;14.40;;;7.47;;
55063;SDS011;40963;52.168;21.296;2023-04-29T03:05:19;18.20;;;8.20;;
55063;SDS011;40963;52.168;21.296;2023-04-29T03:07:45;15.65;;;7.85;;
55063;SDS011;40963;52.168;21.296;2023-04-29T03:10:10;22.45;;;8.75;;
55063;SDS011;40963;52.168;21.296;2023-04-29T03:12:36;15.77;;;7.85;;
55063;SDS011;40963;52.168;21.296;2023-04-29T03:15:03;13.63;;;8.13;;
55063;SDS011;40963;52.168;21.296;2023-04-29T03:17:30;14.75;;;8.27;;
55063;SDS011;40963;52.168;21.296;2023-04-29T03:19:56;16.67;;;8.07;;
55063;SDS011;40963;52.168;21.296;2023-04-29T03:22:22;16.45;;;8.40;;
55063;SDS011;40963;52.168;21.296;2023-04-29T03:24:48;15.52;;;8.48;;
55063;SDS011;40963;52.168;21.296;2023-04-29T03:27:13;16.40;;;7.75;;
55063;SDS011;40963;52.168;21.296;2023-04-29T03:29:39;22.35;;;8.65;;
55063;SDS011;40963;52.168;21.296;2023-04-29T03:32:04;15.85;;;7.72;;
55063;SDS011;40963;52.168;21.296;2023-04-29T03:34:30;13.93;;;7.07;;
55063;SDS011;40963;52.168;21.296;2023-04-29T03:36:56;17.95;;;7.97;;
55063;SDS011;40963;52.168;21.296;2023-04-29T03:39:21;17.73;;;8.15;;
55063;SDS011;40963;52.168;21.296;2023-04-29T03:41:47;21.23;;;7.50;;
55063;SDS011;40963;52.168;21.296;2023-04-29T03:44:13;13.18;;;7.13;;
55063;SDS011;40963;52.168;21.296;2023-04-29T03:46:38;19.52;;;8.48;;
55063;SDS011;40963;52.168;21.296;2023-04-29T03:49:04;16.13;;;7.90;;
55063;SDS011;40963;52.168;21.296;2023-04-29T03:51:29;17.02;;;7.43;;
55063;SDS011;40963;52.168;21.296;2023-04-29T03:53:55;13.88;;;7.75;;
55063;SDS011;40963;52.168;21.296;2023-04-29T03:56:21;14.77;;;7.82;;
55063;SDS011;40963;52.168;21.296;2023-04-29T03:58:49;12.77;;;7.53;;
55063;SDS011;40963;52.168;21.296;2023-04-29T04:01:15;14.23;;;7.07;;
55063;SDS011;40963;52.168;21.296;2023-04-29T04:03:41;14.43;;;7.40;;
55063;SDS011;40963;52.168;21.296;2023-04-29T04:06:07;15.88;;;7.18;;
55063;SDS011;40963;52.168;21.296;2023-04-29T04:08:33;11.63;;;6.97;;
55063;SDS011;40963;52.168;21.296;2023-04-29T04:10:58;14.88;;;7.35;;
55063;SDS011;40963;52.168;21.296;2023-04-29T04:13:27;18.20;;;6.97;;
55063;SDS011;40963;52.168;21.296;2023-04-29T04:15:53;15.07;;;7.15;;
55063;SDS011;40963;52.168;21.296;2023-04-29T04:18:19;14.95;;;7.40;;
55063;SDS011;40963;52.168;21.296;2023-04-29T04:20:44;16.30;;;6.78;;
55063;SDS011;40963;52.168;21.296;2023-04-29T04:23:11;14.68;;;7.45;;
55063;SDS011;40963;52.168;21.296;2023-04-29T04:25:36;17.45;;;6.70;;
55063;SDS011;40963;52.168;21.296;2023-04-29T04:28:02;12.77;;;7.20;;
55063;SDS011;40963;52.168;21.296;2023-04-29T04:30:28;11.95;;;6.88;;
55063;SDS011;40963;52.168;21.296;2023-04-29T04:32:53;14.25;;;6.57;;
55063;SDS011;40963;52.168;21.296;2023-04-29T04:35:19;19.67;;;7.28;;
55063;SDS011;40963;52.168;21.296;2023-04-29T04:37:44;19.48;;;7.05;;
55063;SDS011;40963;52.168;21.296;2023-04-29T04:40:10;12.43;;;6.90;;
55063;SDS011;40963;52.168;21.296;2023-04-29T04:42:37;19.17;;;7.20;;
55063;SDS011;40963;52.168;21.296;2023-04-29T04:45:03;10.75;;;6.28;;
55063;SDS011;40963;52.168;21.296;2023-04-29T04:47:29;12.52;;;7.00;;
55063;SDS011;40963;52.168;21.296;2023-04-29T04:49:55;18.38;;;8.65;;
55063;SDS011;40963;52.168;21.296;2023-04-29T04:52:20;20.02;;;8.43;;
55063;SDS011;40963;52.168;21.296;2023-04-29T04:54:46;21.98;;;11.15;;
55063;SDS011;40963;52.168;21.296;2023-04-29T04:57:12;24.25;;;12.60;;
55063;SDS011;40963;52.168;21.296;2023-04-29T04:59:37;23.25;;;11.80;;
55063;SDS011;40963;52.168;21.296;2023-04-29T05:02:03;24.65;;;9.70;;
55063;SDS011;40963;52.168;21.296;2023-04-29T05:04:29;17.58;;;8.18;;
55063;SDS011;40963;52.168;21.296;2023-04-29T05:06:54;17.45;;;7.45;;
55063;SDS011;40963;52.168;21.296;2023-04-29T05:09:20;10.73;;;6.45;;
55063;SDS011;40963;52.168;21.296;2023-04-29T05:11:46;18.65;;;6.22;;
55063;SDS011;40963;52.168;21.296;2023-04-29T05:14:11;10.30;;;6.57;;
55063;SDS011;40963;52.168;21.296;2023-04-29T05:16:37;10.43;;;5.97;;
55063;SDS011;40963;52.168;21.296;2023-04-29T05:19:02;11.55;;;6.68;;
55063;SDS011;40963;52.168;21.296;2023-04-29T05:21:28;20.92;;;6.80;;
55063;SDS011;40963;52.168;21.296;2023-04-29T05:23:53;7.57;;;5.07;;
55063;SDS011;40963;52.168;21.296;2023-04-29T05:26:19;12.20;;;5.97;;
55063;SDS011;40963;52.168;21.296;2023-04-29T05:28:45;16.10;;;6.63;;
55063;SDS011;40963;52.168;21.296;2023-04-29T05:31:10;14.30;;;6.05;;
55063;SDS011;40963;52.168;21.296;2023-04-29T05:33:36;10.25;;;5.70;;
55063;SDS011;40963;52.168;21.296;2023-04-29T05:36:02;10.15;;;5.80;;
55063;SDS011;40963;52.168;21.296;2023-04-29T05:38:27;10.52;;;6.45;;
55063;SDS011;40963;52.168;21.296;2023-04-29T05:40:54;17.25;;;5.95;;
55063;SDS011;40963;52.168;21.296;2023-04-29T05:43:20;9.35;;;5.70;;
55063;SDS011;40963;52.168;21.296;2023-04-29T05:45:46;16.63;;;5.88;;
55063;SDS011;40963;52.168;21.296;2023-04-29T05:48:11;14.15;;;6.10;;
55063;SDS011;40963;52.168;21.296;2023-04-29T05:50:37;14.73;;;5.32;;
55063;SDS011;40963;52.168;21.296;2023-04-29T05:53:02;10.23;;;5.82;;
55063;SDS011;40963;52.168;21.296;2023-04-29T05:55:28;11.60;;;5.65;;
55063;SDS011;40963;52.168;21.296;2023-04-29T05:57:54;12.10;;;5.03;;
55063;SDS011;40963;52.168;21.296;2023-04-29T06:00:20;11.27;;;5.85;;
55063;SDS011;40963;52.168;21.296;2023-04-29T06:02:46;8.18;;;4.90;;
55063;SDS011;40963;52.168;21.296;2023-04-29T06:05:11;11.60;;;5.03;;
55063;SDS011;40963;52.168;21.296;2023-04-29T06:07:37;8.70;;;4.68;;
55063;SDS011;40963;52.168;21.296;2023-04-29T06:10:03;11.20;;;5.43;;
55063;SDS011;40963;52.168;21.296;2023-04-29T06:12:29;7.43;;;5.10;;
55063;SDS011;40963;52.168;21.296;2023-04-29T06:14:55;11.95;;;5.10;;
55063;SDS011;40963;52.168;21.296;2023-04-29T06:17:21;13.85;;;5.38;;
55063;SDS011;40963;52.168;21.296;2023-04-29T06:19:46;13.52;;;4.50;;
55063;SDS011;40963;52.168;21.296;2023-04-29T06:22:12;8.15;;;4.50;;
55063;SDS011;40963;52.168;21.296;2023-04-29T06:24:37;6.95;;;4.50;;
55063;SDS011;40963;52.168;21.296;2023-04-29T06:27:03;9.10;;;3.88;;
55063;SDS011;40963;52.168;21.296;2023-04-29T06:29:28;6.53;;;4.15;;
55063;SDS011;40963;52.168;21.296;2023-04-29T06:31:54;6.85;;;4.38;;
55063;SDS011;40963;52.168;21.296;2023-04-29T06:34:20;10.80;;;4.55;;
55063;SDS011;40963;52.168;21.296;2023-04-29T06:36:46;9.85;;;4.30;;
55063;SDS011;40963;52.168;21.296;2023-04-29T06:39:11;8.38;;;5.07;;
55063;SDS011;40963;52.168;21.296;2023-04-29T06:41:37;11.02;;;4.60;;
55063;SDS011;40963;52.168;21.296;2023-04-29T06:44:02;5.95;;;4.18;;
55063;SDS011;40963;52.168;21.296;2023-04-29T06:46:28;9.10;;;4.05;;
55063;SDS011;40963;52.168;21.296;2023-04-29T06:48:54;6.10;;;4.10;;
55063;SDS011;40963;52.168;21.296;2023-04-29T06:51:19;12.75;;;3.80;;
55063;SDS011;40963;52.168;21.296;2023-04-29T06:53:45;7.88;;;4.03;;
55063;SDS011;40963;52.168;21.296;2023-04-29T06:56:12;11.77;;;4.00;;
55063;SDS011;40963;52.168;21.296;2023-04-29T06:58:37;10.30;;;4.65;;
55063;SDS011;40963;52.168;21.296;2023-04-29T07:01:03;9.93;;;4.03;;
55063;SDS011;40963;52.168;21.296;2023-04-29T07:03:31;11.57;;;3.85;;
55063;SDS011;40963;52.168;21.296;2023-04-29T07:05:56;6.90;;;4.13;;
55063;SDS011;40963;52.168;21.296;2023-04-29T07:08:22;5.55;;;3.88;;
55063;SDS011;40963;52.168;21.296;2023-04-29T07:10:54;7.03;;;4.13;;
55063;SDS011;40963;52.168;21.296;2023-04-29T07:13:20;6.22;;;3.92;;
55063;SDS011;40963;52.168;21.296;2023-04-29T07:15:46;8.60;;;3.85;;
55063;SDS011;40963;52.168;21.296;2023-04-29T07:18:12;7.20;;;3.72;;
55063;SDS011;40963;52.168;21.296;2023-04-29T07:20:38;7.55;;;4.10;;
55063;SDS011;40963;52.168;21.296;2023-04-29T07:23:03;6.28;;;3.78;;
55063;SDS011;40963;52.168;21.296;2023-04-29T07:25:29;7.40;;;4.28;;
55063;SDS011;40963;52.168;21.296;2023-04-29T07:27:55;5.90;;;3.63;;
55063;SDS011;40963;52.168;21.296;2023-04-29T07:30:21;14.32;;;4.15;;
55063;SDS011;40963;52.168;21.296;2023-04-29T07:32:47;8.68;;;3.70;;
55063;SDS011;40963;52.168;21.296;2023-04-29T07:35:13;7.93;;;4.25;;
55063;SDS011;40963;52.168;21.296;2023-04-29T07:37:38;5.82;;;3.47;;
55063;SDS011;40963;52.168;21.296;2023-04-29T07:40:05;18.73;;;8.73;;
55063;SDS011;40963;52.168;21.296;2023-04-29T07:42:31;13.07;;;7.93;;
55063;SDS011;40963;52.168;21.296;2023-04-29T07:44:57;13.82;;;5.25;;
55063;SDS011;40963;52.168;21.296;2023-04-29T07:47:22;9.05;;;5.95;;
55063;SDS011;40963;52.168;21.296;2023-04-29T07:49:48;15.82;;;6.82;;
55063;SDS011;40963;52.168;21.296;2023-04-29T07:52:13;8.18;;;5.32;;
55063;SDS011;40963;52.168;21.296;2023-04-29T07:54:39;6.78;;;4.25;;
55063;SDS011;40963;52.168;21.296;2023-04-29T07:57:05;8.73;;;4.60;;
55063;SDS011;40963;52.168;21.296;2023-04-29T07:59:30;15.38;;;7.20;;
55063;SDS011;40963;52.168;21.296;2023-04-29T08:01:56;8.45;;;5.38;;
55063;SDS011;40963;52.168;21.296;2023-04-29T08:04:22;6.10;;;4.03;;
55063;SDS011;40963;52.168;21.296;2023-04-29T08:06:48;17.42;;;5.00;;
55063;SDS011;40963;52.168;21.296;2023-04-29T08:09:14;7.70;;;3.95;;
55063;SDS011;40963;52.168;21.296;2023-04-29T08:11:40;11.48;;;4.50;;
55063;SDS011;40963;52.168;21.296;2023-04-29T08:14:06;7.80;;;3.70;;
55063;SDS011;40963;52.168;21.296;2023-04-29T08:16:32;11.55;;;4.72;;
55063;SDS011;40963;52.168;21.296;2023-04-29T08:18:58;6.80;;;4.50;;
55063;SDS011;40963;52.168;21.296;2023-04-29T08:21:23;12.52;;;5.22;;
55063;SDS011;40963;52.168;21.296;2023-04-29T08:23:49;9.98;;;5.18;;
55063;SDS011;40963;52.168;21.296;2023-04-29T08:26:15;7.13;;;4.18;;
55063;SDS011;40963;52.168;21.296;2023-04-29T08:28:40;5.88;;;3.78;;
55063;SDS011;40963;52.168;21.296;2023-04-29T08:31:06;8.88;;;3.65;;
55063;SDS011;40963;52.168;21.296;2023-04-29T08:33:40;6.35;;;3.38;;
55063;SDS011;40963;52.168;21.296;2023-04-29T08:36:06;7.68;;;3.95;;
55063;SDS011;40963;52.168;21.296;2023-04-29T08:38:32;7.45;;;4.53;;
55063;SDS011;40963;52.168;21.296;2023-04-29T08:40:58;11.20;;;4.22;;
55063;SDS011;40963;52.168;21.296;2023-04-29T08:43:24;8.50;;;3.58;;
55063;SDS011;40963;52.168;21.296;2023-04-29T08:45:51;11.00;;;4.50;;
55063;SDS011;40963;52.168;21.296;2023-04-29T08:48:17;6.53;;;3.65;;
55063;SDS011;40963;52.168;21.296;2023-04-29T08:50:43;8.55;;;5.03;;
55063;SDS011;40963;52.168;21.296;2023-04-29T08:53:10;12.95;;;4.43;;
55063;SDS011;40963;52.168;21.296;2023-04-29T08:55:40;8.23;;;4.68;;
55063;SDS011;40963;52.168;21.296;2023-04-29T08:58:07;7.57;;;4.55;;
55063;SDS011;40963;52.168;21.296;2023-04-29T09:00:34;6.10;;;3.67;;
55063;SDS011;40963;52.168;21.296;2023-04-29T09:03:01;8.00;;;4.32;;
55063;SDS011;40963;52.168;21.296;2023-04-29T09:05:36;11.15;;;4.13;;
55063;SDS011;40963;52.168;21.296;2023-04-29T09:08:05;11.55;;;4.43;;
55063;SDS011;40963;52.168;21.296;2023-04-29T09:10:32;11.00;;;4.22;;
55063;SDS011;40963;52.168;21.296;2023-04-29T09:13:01;6.55;;;3.30;;
55063;SDS011;40963;52.168;21.296;2023-04-29T09:15:26;10.60;;;5.10;;
55063;SDS011;40963;52.168;21.296;2023-04-29T09:17:52;5.93;;;3.60;;
55063;SDS011;40963;52.168;21.296;2023-04-29T09:22:57;7.68;;;4.03;;
55063;SDS011;40963;52.168;21.296;2023-04-29T09:25:28;4.88;;;3.90;;
55063;SDS011;40963;52.168;21.296;2023-04-29T09:27:53;7.65;;;4.30;;
55063;SDS011;40963;52.168;21.296;2023-04-29T09:30:20;9.10;;;3.63;;
55063;SDS011;40963;52.168;21.296;2023-04-29T09:33:05;6.85;;;4.10;;
55063;SDS011;40963;52.168;21.296;2023-04-29T09:35:33;8.00;;;4.18;;
55063;SDS011;40963;52.168;21.296;2023-04-29T09:38:14;8.90;;;4.03;;
55063;SDS011;40963;52.168;21.296;2023-04-29T09:40:41;8.65;;;4.10;;
55063;SDS011;40963;52.168;21.296;2023-04-29T09:43:25;12.98;;;3.75;;
55063;SDS011;40963;52.168;21.296;2023-04-29T09:45:50;7.25;;;3.75;;
55063;SDS011;40963;52.168;21.296;2023-04-29T09:48:16;4.07;;;3.47;;
55063;SDS011;40963;52.168;21.296;2023-04-29T09:50:42;6.15;;;3.83;;
55063;SDS011;40963;52.168;21.296;2023-04-29T09:53:09;8.40;;;3.53;;
55063;SDS011;40963;52.168;21.296;2023-04-29T09:55:36;7.20;;;3.75;;
55063;SDS011;40963;52.168;21.296;2023-04-29T09:58:32;7.80;;;3.65;;
55063;SDS011;40963;52.168;21.296;2023-04-29T10:01:01;5.07;;;3.55;;
55063;SDS011;40963;52.168;21.296;2023-04-29T10:03:45;6.55;;;3.80;;
55063;SDS011;40963;52.168;21.296;2023-04-29T10:06:12;11.43;;;4.13;;
55063;SDS011;40963;52.168;21.296;2023-04-29T10:08:40;6.13;;;3.30;;
55063;SDS011;40963;52.168;21.296;2023-04-29T10:11:08;6.60;;;4.07;;
55063;SDS011;40963;52.168;21.296;2023-04-29T10:13:35;8.57;;;3.78;;
55063;SDS011;40963;52.168;21.296;2023-04-29T10:18:48;9.63;;;4.32;;
55063;SDS011;40963;52.168;21.296;2023-04-29T10:21:17;8.55;;;4.00;;
55063;SDS011;40963;52.168;21.296;2023-04-29T10:23:56;11.13;;;4.50;;
55063;SDS011;40963;52.168;21.296;2023-04-29T10:26:26;8.80;;;4.10;;
55063;SDS011;40963;52.168;21.296;2023-04-29T10:28:55;11.40;;;4.10;;
55063;SDS011;40963;52.168;21.296;2023-04-29T10:31:24;14.30;;;3.97;;
55063;SDS011;40963;52.168;21.296;2023-04-29T10:33:50;7.22;;;3.63;;
55063;SDS011;40963;52.168;21.296;2023-04-29T10:36:19;5.05;;;3.50;;
55063;SDS011;40963;52.168;21.296;2023-04-29T10:38:50;12.10;;;3.70;;
55063;SDS011;40963;52.168;21.296;2023-04-29T10:41:22;4.88;;;3.63;;
55063;SDS011;40963;52.168;21.296;2023-04-29T10:43:53;9.38;;;4.35;;
55063;SDS011;40963;52.168;21.296;2023-04-29T10:46:20;6.63;;;3.97;;
55063;SDS011;40963;52.168;21.296;2023-04-29T10:48:56;6.97;;;4.10;;
55063;SDS011;40963;52.168;21.296;2023-04-29T10:51:29;14.18;;;3.53;;
55063;SDS011;40963;52.168;21.296;2023-04-29T10:54:11;8.43;;;3.75;;
55063;SDS011;40963;52.168;21.296;2023-04-29T10:56:51;6.65;;;3.85;;
55063;SDS011;40963;52.168;21.296;2023-04-29T10:59:22;5.38;;;3.97;;
55063;SDS011;40963;52.168;21.296;2023-04-29T11:02:06;5.18;;;3.95;;
55063;SDS011;40963;52.168;21.296;2023-04-29T11:04:33;6.18;;;3.58;;
55063;SDS011;40963;52.168;21.296;2023-04-29T11:06:59;9.02;;;3.33;;
55063;SDS011;40963;52.168;21.296;2023-04-29T11:09:27;5.72;;;3.85;;
55063;SDS011;40963;52.168;21.296;2023-04-29T11:12:02;6.05;;;3.55;;
55063;SDS011;40963;52.168;21.296;2023-04-29T11:14:34;5.85;;;3.80;;
55063;SDS011;40963;52.168;21.296;2023-04-29T11:17:01;9.57;;;4.93;;
55063;SDS011;40963;52.168;21.296;2023-04-29T11:19:32;6.45;;;5.03;;
55063;SDS011;40963;52.168;21.296;2023-04-29T11:22:03;6.38;;;4.18;;
55063;SDS011;40963;52.168;21.296;2023-04-29T11:24:34;10.82;;;4.20;;
55063;SDS011;40963;52.168;21.296;2023-04-29T11:27:01;14.20;;;5.68;;
55063;SDS011;40963;52.168;21.296;2023-04-29T11:29:29;9.93;;;4.20;;
55063;SDS011;40963;52.168;21.296;2023-04-29T11:32:00;8.95;;;4.30;;
55063;SDS011;40963;52.168;21.296;2023-04-29T11:34:26;5.95;;;3.83;;
55063;SDS011;40963;52.168;21.296;2023-04-29T11:36:51;10.23;;;4.63;;
55063;SDS011;40963;52.168;21.296;2023-04-29T11:39:17;10.60;;;3.50;;
55063;SDS011;40963;52.168;21.296;2023-04-29T11:41:43;9.15;;;4.13;;
55063;SDS011;40963;52.168;21.296;2023-04-29T11:44:08;5.85;;;3.78;;
55063;SDS011;40963;52.168;21.296;2023-04-29T11:46:36;8.30;;;3.72;;
55063;SDS011;40963;52.168;21.296;2023-04-29T11:49:01;6.63;;;3.97;;
55063;SDS011;40963;52.168;21.296;2023-04-29T11:51:27;10.40;;;3.78;;
55063;SDS011;40963;52.168;21.296;2023-04-29T11:53:53;4.88;;;3.47;;
55063;SDS011;40963;52.168;21.296;2023-04-29T11:56:23;9.82;;;3.63;;
55063;SDS011;40963;52.168;21.296;2023-04-29T11:58:55;11.27;;;3.80;;
55063;SDS011;40963;52.168;21.296;2023-04-29T12:01:21;9.15;;;3.80;;
55063;SDS011;40963;52.168;21.296;2023-04-29T12:03:49;13.00;;;3.80;;
55063;SDS011;40963;52.168;21.296;2023-04-29T12:06:14;6.15;;;3.53;;
55063;SDS011;40963;52.168;21.296;2023-04-29T12:08:40;6.18;;;3.53;;
55063;SDS011;40963;52.168;21.296;2023-04-29T12:11:06;10.38;;;4.13;;
55063;SDS011;40963;52.168;21.296;2023-04-29T12:13:32;9.07;;;3.90;;
55063;SDS011;40963;52.168;21.296;2023-04-29T12:16:01;9.45;;;4.15;;
55063;SDS011;40963;52.168;21.296;2023-04-29T12:18:28;9.57;;;4.38;;
55063;SDS011;40963;52.168;21.296;2023-04-29T12:20:54;5.32;;;3.72;;
55063;SDS011;40963;52.168;21.296;2023-04-29T12:23:21;7.05;;;3.90;;
55063;SDS011;40963;52.168;21.296;2023-04-29T12:25:52;9.32;;;3.53;;
55063;SDS011;40963;52.168;21.296;2023-04-29T12:28:23;6.10;;;3.72;;
55063;SDS011;40963;52.168;21.296;2023-04-29T12:30:49;7.28;;;3.40;;
55063;SDS011;40963;52.168;21.296;2023-04-29T12:33:18;5.47;;;3.30;;
55063;SDS011;40963;52.168;21.296;2023-04-29T12:35:49;4.53;;;3.45;;
55063;SDS011;40963;52.168;21.296;2023-04-29T12:38:19;7.63;;;3.92;;
55063;SDS011;40963;52.168;21.296;2023-04-29T12:40:52;4.35;;;3.35;;
55063;SDS011;40963;52.168;21.296;2023-04-29T12:43:18;7.32;;;3.95;;
55063;SDS011;40963;52.168;21.296;2023-04-29T12:45:44;5.75;;;3.65;;
55063;SDS011;40963;52.168;21.296;2023-04-29T12:48:10;10.45;;;3.67;;
55063;SDS011;40963;52.168;21.296;2023-04-29T12:50:37;8.18;;;3.88;;
55063;SDS011;40963;52.168;21.296;2023-04-29T12:53:04;5.10;;;3.40;;
55063;SDS011;40963;52.168;21.296;2023-04-29T12:55:31;6.93;;;3.33;;
55063;SDS011;40963;52.168;21.296;2023-04-29T12:57:58;8.85;;;3.72;;
55063;SDS011;40963;52.168;21.296;2023-04-29T13:00:24;10.13;;;4.03;;
55063;SDS011;40963;52.168;21.296;2023-04-29T13:02:49;8.20;;;3.90;;
55063;SDS011;40963;52.168;21.296;2023-04-29T13:05:15;10.38;;;4.03;;
55063;SDS011;40963;52.168;21.296;2023-04-29T13:07:41;8.93;;;4.13;;
55063;SDS011;40963;52.168;21.296;2023-04-29T13:10:07;15.68;;;4.65;;
55063;SDS011;40963;52.168;21.296;2023-04-29T13:12:33;6.53;;;3.58;;
55063;SDS011;40963;52.168;21.296;2023-04-29T13:14:58;8.80;;;3.20;;
55063;SDS011;40963;52.168;21.296;2023-04-29T13:17:24;12.30;;;4.30;;
55063;SDS011;40963;52.168;21.296;2023-04-29T13:19:50;7.90;;;3.92;;
55063;SDS011;40963;52.168;21.296;2023-04-29T13:22:16;9.75;;;3.60;;
55063;SDS011;40963;52.168;21.296;2023-04-29T13:24:41;10.60;;;3.75;;
55063;SDS011;40963;52.168;21.296;2023-04-29T13:27:07;15.90;;;3.53;;
55063;SDS011;40963;52.168;21.296;2023-04-29T13:29:33;7.78;;;3.33;;
55063;SDS011;40963;52.168;21.296;2023-04-29T13:31:58;5.07;;;3.33;;
55063;SDS011;40963;52.168;21.296;2023-04-29T13:34:24;3.88;;;3.13;;
55063;SDS011;40963;52.168;21.296;2023-04-29T13:36:49;7.38;;;3.30;;
55063;SDS011;40963;52.168;21.296;2023-04-29T13:39:15;9.88;;;4.03;;
55063;SDS011;40963;52.168;21.296;2023-04-29T13:41:41;4.32;;;3.33;;
55063;SDS011;40963;52.168;21.296;2023-04-29T13:44:07;8.93;;;3.80;;
55063;SDS011;40963;52.168;21.296;2023-04-29T13:46:32;15.88;;;4.00;;
55063;SDS011;40963;52.168;21.296;2023-04-29T13:48:58;7.32;;;4.18;;
55063;SDS011;40963;52.168;21.296;2023-04-29T13:51:24;9.88;;;3.60;;
55063;SDS011;40963;52.168;21.296;2023-04-29T13:53:49;17.02;;;8.25;;
55063;SDS011;40963;52.168;21.296;2023-04-29T13:56:15;8.77;;;3.70;;
55063;SDS011;40963;52.168;21.296;2023-04-29T13:58:40;10.77;;;4.05;;
55063;SDS011;40963;52.168;21.296;2023-04-29T14:01:06;9.30;;;4.05;;
55063;SDS011;40963;52.168;21.296;2023-04-29T14:03:32;7.50;;;3.90;;
55063;SDS011;40963;52.168;21.296;2023-04-29T14:05:58;7.03;;;3.83;;
55063;SDS011;40963;52.168;21.296;2023-04-29T14:08:23;7.45;;;3.92;;
55063;SDS011;40963;52.168;21.296;2023-04-29T14:10:49;4.18;;;3.67;;
55063;SDS011;40963;52.168;21.296;2023-04-29T14:13:15;5.70;;;3.55;;
55063;SDS011;40963;52.168;21.296;2023-04-29T14:15:41;8.57;;;4.00;;
55063;SDS011;40963;52.168;21.296;2023-04-29T14:18:07;16.13;;;3.78;;
55063;SDS011;40963;52.168;21.296;2023-04-29T14:20:33;5.85;;;3.95;;
55063;SDS011;40963;52.168;21.296;2023-04-29T14:23:00;10.57;;;4.28;;
55063;SDS011;40963;52.168;21.296;2023-04-29T14:25:26;9.35;;;4.47;;
55063;SDS011;40963;52.168;21.296;2023-04-29T14:27:51;24.05;;;6.55;;
55063;SDS011;40963;52.168;21.296;2023-04-29T14:30:17;30.30;;;5.05;;
55063;SDS011;40963;52.168;21.296;2023-04-29T14:32:42;6.97;;;3.70;;
55063;SDS011;40963;52.168;21.296;2023-04-29T14:35:08;9.93;;;4.50;;
55063;SDS011;40963;52.168;21.296;2023-04-29T14:37:34;8.18;;;4.05;;
55063;SDS011;40963;52.168;21.296;2023-04-29T14:40:00;11.48;;;3.65;;